createdAt,value
2019-01-09T00:00:09.933Z,6.48
2019-01-09T00:01:09.985Z,6.33
2019-01-09T00:02:10.036Z,6.33
2019-01-09T00:03:10.088Z,6.40
2019-01-09T00:04:10.142Z,6.43
2019-01-09T00:05:10.192Z,6.36
2019-01-09T00:06:10.243Z,6.48
2019-01-09T00:07:10.293Z,6.46
2019-01-09T00:08:10.347Z,6.51
2019-01-09T00:09:10.399Z,6.51
2019-01-09T00:10:10.450Z,6.45
2019-01-09T00:11:10.502Z,6.55
2019-01-09T00:12:10.552Z,6.57
2019-01-09T00:13:10.606Z,6.58
2019-01-09T00:14:10.659Z,6.43
2019-01-09T00:15:10.709Z,6.57
2019-01-09T00:16:10.761Z,6.48
2019-01-09T00:17:10.813Z,6.50
2019-01-09T00:18:10.864Z,6.53
2019-01-09T00:19:10.916Z,6.39
2019-01-09T00:20:10.967Z,6.50
2019-01-09T00:21:11.019Z,6.35
2019-01-09T00:22:11.073Z,6.27
2019-01-09T00:23:11.122Z,6.25
2019-01-09T00:24:11.177Z,6.36
2019-01-09T00:25:11.227Z,6.36
2019-01-09T00:26:11.280Z,6.45
2019-01-09T00:27:11.330Z,6.40
2019-01-09T00:28:11.382Z,6.32
2019-01-09T00:29:11.435Z,6.33
2019-01-09T00:30:11.486Z,6.43
2019-01-09T00:31:11.536Z,6.38
2019-01-09T00:32:11.591Z,6.43
2019-01-09T00:33:11.642Z,6.36
2019-01-09T00:34:11.693Z,6.30
2019-01-09T00:35:11.746Z,6.36
2019-01-09T00:36:11.796Z,6.42
2019-01-09T00:37:11.848Z,6.38
2019-01-09T00:38:11.900Z,6.36
2019-01-09T00:39:11.951Z,6.30
2019-01-09T00:40:12.002Z,6.39
2019-01-09T00:41:12.055Z,6.42
2019-01-09T00:42:12.108Z,6.39
2019-01-09T00:43:12.159Z,6.32
2019-01-09T00:44:12.211Z,6.21
2019-01-09T00:45:12.263Z,6.19
2019-01-09T00:46:12.313Z,6.11
2019-01-09T00:47:12.365Z,6.32
2019-01-09T00:48:12.418Z,6.24
2019-01-09T00:49:12.469Z,6.32
2019-01-09T00:50:12.521Z,6.28
2019-01-09T00:51:12.577Z,6.32
2019-01-09T00:52:12.625Z,6.32
2019-01-09T00:53:12.681Z,6.32
2019-01-09T00:54:12.731Z,6.36
2019-01-09T00:55:12.781Z,6.28
2019-01-09T00:56:12.832Z,6.33
2019-01-09T00:57:12.884Z,6.33
2019-01-09T00:58:12.971Z,6.35
2019-01-09T00:59:13.080Z,6.35
2019-01-09T01:00:13.041Z,6.27
2019-01-09T01:01:13.091Z,6.38
2019-01-09T01:02:13.148Z,6.39
2019-01-09T01:03:13.196Z,6.33
2019-01-09T01:04:13.247Z,6.30
2019-01-09T01:05:13.300Z,6.30
2019-01-09T01:06:13.355Z,6.40
2019-01-09T01:07:13.401Z,6.48
2019-01-09T01:08:13.454Z,6.43
2019-01-09T01:09:13.506Z,6.43
2019-01-09T01:10:13.558Z,6.46
2019-01-09T01:11:13.609Z,6.46
2019-01-09T01:12:13.664Z,6.53
2019-01-09T01:13:13.713Z,6.51
2019-01-09T01:14:13.768Z,6.43
2019-01-09T01:15:13.817Z,6.46
2019-01-09T01:16:13.871Z,6.43
2019-01-09T01:17:13.920Z,6.36
2019-01-09T01:18:13.973Z,6.46
2019-01-09T01:19:14.022Z,6.48
2019-01-09T01:20:14.076Z,6.43
2019-01-09T01:21:14.126Z,6.57
2019-01-09T01:22:14.180Z,6.54
2019-01-09T01:23:14.230Z,6.54
2019-01-09T01:24:14.283Z,6.68
2019-01-09T01:25:14.334Z,6.72
2019-01-09T01:26:14.387Z,6.68
2019-01-09T01:27:14.438Z,6.69
2019-01-09T01:28:14.488Z,6.65
2019-01-09T01:29:14.542Z,6.63
2019-01-09T01:30:14.595Z,6.68
2019-01-09T01:31:14.646Z,6.69
2019-01-09T01:32:14.697Z,6.54
2019-01-09T01:33:14.749Z,6.55
2019-01-09T01:34:14.801Z,6.60
2019-01-09T01:35:14.852Z,6.58
2019-01-09T01:36:14.906Z,6.69
2019-01-09T01:37:14.956Z,6.65
2019-01-09T01:38:15.008Z,6.68
2019-01-09T01:39:15.060Z,6.73
2019-01-09T01:40:15.112Z,6.69
2019-01-09T01:41:15.167Z,6.73
2019-01-09T01:42:15.218Z,6.73
2019-01-09T01:43:15.268Z,6.63
2019-01-09T01:44:15.322Z,6.58
2019-01-09T01:45:15.379Z,6.53
2019-01-09T01:46:15.424Z,6.43
2019-01-09T01:47:15.476Z,6.40
2019-01-09T01:48:15.528Z,6.43
2019-01-09T01:49:15.581Z,6.35
2019-01-09T01:50:15.634Z,6.38
2019-01-09T01:51:15.684Z,6.46
2019-01-09T01:52:15.737Z,6.36
2019-01-09T01:53:15.789Z,6.48
2019-01-09T01:54:15.840Z,6.45
2019-01-09T01:55:15.892Z,6.48
2019-01-09T01:56:15.943Z,6.55
2019-01-09T01:57:15.997Z,6.42
2019-01-09T01:58:16.047Z,6.43
2019-01-09T01:59:16.098Z,6.27
2019-01-09T02:00:16.150Z,6.40
2019-01-09T02:01:16.204Z,6.38
2019-01-09T02:02:16.254Z,6.43
2019-01-09T02:03:16.339Z,6.32
2019-01-09T02:04:16.358Z,6.36
2019-01-09T02:05:16.412Z,6.40
2019-01-09T02:06:16.463Z,6.46
2019-01-09T02:07:16.512Z,6.43
2019-01-09T02:08:16.564Z,6.43
2019-01-09T02:09:16.617Z,6.39
2019-01-09T02:10:16.668Z,6.48
2019-01-09T02:11:16.721Z,6.39
2019-01-09T02:12:16.780Z,6.42
2019-01-09T02:13:16.823Z,6.43
2019-01-09T02:14:16.876Z,6.46
2019-01-09T02:15:16.927Z,6.46
2019-01-09T02:16:16.979Z,6.39
2019-01-09T02:17:17.030Z,6.43
2019-01-09T02:18:17.082Z,6.40
2019-01-09T02:19:17.134Z,6.43
2019-01-09T02:20:17.185Z,6.38
2019-01-09T02:21:17.241Z,6.36
2019-01-09T02:22:17.322Z,6.36
2019-01-09T02:23:17.365Z,6.43
2019-01-09T02:24:17.416Z,6.43
2019-01-09T02:25:17.491Z,6.38
2019-01-09T02:26:17.509Z,6.43
2019-01-09T02:27:17.549Z,6.28
2019-01-09T02:28:17.645Z,6.38
2019-01-09T02:29:17.686Z,6.51
2019-01-09T02:30:17.799Z,6.57
2019-01-09T02:31:17.787Z,6.53
2019-01-09T02:32:17.861Z,6.43
2019-01-09T02:33:17.862Z,6.42
2019-01-09T02:34:17.912Z,6.54
2019-01-09T02:35:17.966Z,6.55
2019-01-09T02:36:18.017Z,6.51
2019-01-09T02:37:18.066Z,6.55
2019-01-09T02:38:18.118Z,6.54
2019-01-09T02:39:18.183Z,6.57
2019-01-09T02:40:18.225Z,6.53
2019-01-09T02:41:18.274Z,6.42
2019-01-09T02:42:18.326Z,6.54
2019-01-09T02:43:18.377Z,6.58
2019-01-09T02:44:18.430Z,6.57
2019-01-09T02:45:18.484Z,6.55
2019-01-09T02:46:18.535Z,6.57
2019-01-09T02:47:18.586Z,6.65
2019-01-09T02:48:18.639Z,6.57
2019-01-09T02:49:18.689Z,6.58
2019-01-09T02:50:18.741Z,6.55
2019-01-09T02:51:18.791Z,6.60
2019-01-09T02:52:18.844Z,6.57
2019-01-09T02:53:18.899Z,6.58
2019-01-09T02:54:18.948Z,6.53
2019-01-09T02:55:18.998Z,6.55
2019-01-09T02:56:19.051Z,6.48
2019-01-09T02:57:19.104Z,6.48
2019-01-09T02:58:19.156Z,6.53
2019-01-09T02:59:19.217Z,6.43
2019-01-09T03:00:19.259Z,6.43
2019-01-09T03:01:19.311Z,6.45
2019-01-09T03:02:19.370Z,6.57
2019-01-09T03:03:19.416Z,6.55
2019-01-09T03:04:19.466Z,6.55
2019-01-09T03:05:19.522Z,6.53
2019-01-09T03:06:23.031Z,6.60
2019-01-09T03:07:19.622Z,6.55
2019-01-09T03:08:19.676Z,6.60
2019-01-09T03:09:19.728Z,6.58
2019-01-09T03:10:19.777Z,6.63
2019-01-09T03:11:19.830Z,6.58
2019-01-09T03:12:19.881Z,6.60
2019-01-09T03:13:19.933Z,6.60
2019-01-09T03:14:19.985Z,6.45
2019-01-09T03:15:20.062Z,6.54
2019-01-09T03:16:20.133Z,6.46
2019-01-09T03:17:20.141Z,6.55
2019-01-09T03:18:20.194Z,6.51
2019-01-09T03:19:20.245Z,6.45
2019-01-09T03:20:20.301Z,6.48
2019-01-09T03:21:22.384Z,6.50
2019-01-09T03:22:20.404Z,6.43
2019-01-09T03:23:20.454Z,6.43
2019-01-09T03:24:20.506Z,6.45
2019-01-09T03:25:20.557Z,6.45
2019-01-09T03:26:20.608Z,6.36
2019-01-09T03:27:20.706Z,6.43
2019-01-09T03:28:20.733Z,6.28
2019-01-09T03:29:20.780Z,6.33
2019-01-09T03:30:20.816Z,6.30
2019-01-09T03:31:20.869Z,6.35
2019-01-09T03:32:20.920Z,6.38
2019-01-09T03:33:20.974Z,6.35
2019-01-09T03:34:21.025Z,6.28
2019-01-09T03:35:21.074Z,6.39
2019-01-09T03:36:21.128Z,6.42
2019-01-09T03:37:21.180Z,6.42
2019-01-09T03:38:21.235Z,6.46
2019-01-09T03:39:21.284Z,6.43
2019-01-09T03:40:21.335Z,6.50
2019-01-09T03:41:21.386Z,6.48
2019-01-09T03:42:21.439Z,6.46
2019-01-09T03:43:21.491Z,6.39
2019-01-09T03:44:21.543Z,6.46
2019-01-09T03:45:21.595Z,6.40
2019-01-09T03:46:21.646Z,6.40
2019-01-09T03:47:21.699Z,6.43
2019-01-09T03:48:21.751Z,6.40
2019-01-09T03:49:21.802Z,6.40
2019-01-09T03:50:21.858Z,6.50
2019-01-09T03:51:21.907Z,6.38
2019-01-09T03:52:21.959Z,6.36
2019-01-09T03:53:22.017Z,6.48
2019-01-09T03:54:22.066Z,6.45
2019-01-09T03:55:22.116Z,6.43
2019-01-09T03:56:22.167Z,6.43
2019-01-09T03:57:22.220Z,6.45
2019-01-09T03:58:22.271Z,6.46
2019-01-09T03:59:22.331Z,6.45
2019-01-09T04:00:22.374Z,6.43
2019-01-09T04:01:22.427Z,6.35
2019-01-09T04:02:22.480Z,6.46
2019-01-09T04:03:24.378Z,6.36
2019-01-09T04:04:22.584Z,6.45
2019-01-09T04:05:22.668Z,6.36
2019-01-09T04:06:22.688Z,6.36
2019-01-09T04:07:22.736Z,6.43
2019-01-09T04:08:22.824Z,6.42
2019-01-09T04:09:22.875Z,6.51
2019-01-09T04:10:22.895Z,6.43
2019-01-09T04:11:22.946Z,6.46
2019-01-09T04:12:22.999Z,6.36
2019-01-09T04:13:23.050Z,6.36
2019-01-09T04:14:23.106Z,6.45
2019-01-09T04:15:23.159Z,6.43
2019-01-09T04:16:23.206Z,6.45
2019-01-09T04:17:23.259Z,6.51
2019-01-09T04:18:23.313Z,6.43
2019-01-09T04:19:23.370Z,6.36
2019-01-09T04:20:23.413Z,6.40
2019-01-09T04:21:23.465Z,6.42
2019-01-09T04:22:23.518Z,6.35
2019-01-09T04:23:23.570Z,6.30
2019-01-09T04:24:23.620Z,6.28
2019-01-09T04:25:23.673Z,6.19
2019-01-09T04:26:23.726Z,6.08
2019-01-09T04:27:23.775Z,6.03
2019-01-09T04:28:23.833Z,6.02
2019-01-09T04:29:23.881Z,5.93
2019-01-09T04:30:23.936Z,5.83
2019-01-09T04:31:23.984Z,5.78
2019-01-09T04:32:24.036Z,5.75
2019-01-09T04:33:24.087Z,5.69
2019-01-09T04:34:24.141Z,5.73
2019-01-09T04:35:24.191Z,5.58
2019-01-09T04:36:24.243Z,5.62
2019-01-09T04:37:24.295Z,5.52
2019-01-09T04:38:24.346Z,5.48
2019-01-09T04:39:24.396Z,5.49
2019-01-09T04:40:24.449Z,5.44
2019-01-09T04:41:24.507Z,5.40
2019-01-09T04:42:24.555Z,5.37
2019-01-09T04:43:24.606Z,5.37
2019-01-09T04:44:24.670Z,5.37
2019-01-09T04:45:24.711Z,5.30
2019-01-09T04:46:24.762Z,5.37
2019-01-09T04:47:24.812Z,5.33
2019-01-09T04:48:24.862Z,5.30
2019-01-09T04:49:24.916Z,5.26
2019-01-09T04:50:24.973Z,5.27
2019-01-09T04:51:25.018Z,5.29
2019-01-09T04:52:25.068Z,5.22
2019-01-09T04:53:25.122Z,5.27
2019-01-09T04:54:25.191Z,5.15
2019-01-09T04:55:25.220Z,5.15
2019-01-09T04:56:25.275Z,5.17
2019-01-09T04:57:25.326Z,5.26
2019-01-09T04:58:25.377Z,5.23
2019-01-09T04:59:25.448Z,5.26
2019-01-09T05:00:25.486Z,5.33
2019-01-09T05:01:25.529Z,5.27
2019-01-09T05:02:25.582Z,5.14
2019-01-09T05:03:25.666Z,5.17
2019-01-09T05:04:25.684Z,5.12
2019-01-09T05:05:25.736Z,5.15
2019-01-09T05:06:25.788Z,5.14
2019-01-09T05:07:25.838Z,5.11
2019-01-09T05:08:25.891Z,5.11
2019-01-09T05:09:25.943Z,5.19
2019-01-09T05:10:25.992Z,5.12
2019-01-09T05:11:26.043Z,5.09
2019-01-09T05:12:26.094Z,5.08
2019-01-09T05:13:26.146Z,5.19
2019-01-09T05:14:26.197Z,5.06
2019-01-09T05:15:26.247Z,5.04
2019-01-09T05:16:26.302Z,4.97
2019-01-09T05:17:26.368Z,4.96
2019-01-09T05:18:26.452Z,4.90
2019-01-09T05:19:30.597Z,4.88
2019-01-09T05:20:26.557Z,4.91
2019-01-09T05:21:26.610Z,4.86
2019-01-09T05:22:26.660Z,5.08
2019-01-09T05:23:26.658Z,5.04
2019-01-09T05:24:27.118Z,5.02
2019-01-09T05:25:26.761Z,5.04
2019-01-09T05:26:26.813Z,5.08
2019-01-09T05:27:26.867Z,4.96
2019-01-09T05:28:26.912Z,4.90
2019-01-09T05:29:26.966Z,4.86
2019-01-09T05:30:27.017Z,4.90
2019-01-09T05:31:27.067Z,4.91
2019-01-09T05:32:27.118Z,4.93
2019-01-09T05:33:27.174Z,4.94
2019-01-09T05:34:27.220Z,4.90
2019-01-09T05:35:27.271Z,4.93
2019-01-09T05:36:27.323Z,4.87
2019-01-09T05:37:27.377Z,4.88
2019-01-09T05:38:27.427Z,4.97
2019-01-09T05:39:27.480Z,4.99
2019-01-09T05:40:27.528Z,4.97
2019-01-09T05:41:27.577Z,5.04
2019-01-09T05:42:27.631Z,5.04
2019-01-09T05:43:27.680Z,5.08
2019-01-09T05:44:27.731Z,5.20
2019-01-09T05:45:27.782Z,5.17
2019-01-09T05:46:27.833Z,5.27
2019-01-09T05:47:27.884Z,5.26
2019-01-09T05:48:27.936Z,5.32
2019-01-09T05:49:27.988Z,5.27
2019-01-09T05:50:28.038Z,5.29
2019-01-09T05:51:28.089Z,5.32
2019-01-09T05:52:28.140Z,5.35
2019-01-09T05:53:28.192Z,5.48
2019-01-09T05:54:28.245Z,5.48
2019-01-09T05:55:28.294Z,5.52
2019-01-09T05:56:28.345Z,5.40
2019-01-09T05:57:28.406Z,5.29
2019-01-09T05:58:28.448Z,5.35
2019-01-09T05:59:28.499Z,5.41
2019-01-09T06:00:28.575Z,5.37
2019-01-09T06:01:28.625Z,5.48
2019-01-09T06:02:28.654Z,5.48
2019-01-09T06:03:28.704Z,5.49
2019-01-09T06:04:28.769Z,5.40
2019-01-09T06:05:28.843Z,5.35
2019-01-09T06:06:28.878Z,5.37
2019-01-09T06:07:28.923Z,5.37
2019-01-09T06:08:28.985Z,5.27
2019-01-09T06:09:29.016Z,5.15
2019-01-09T06:10:29.064Z,5.09
2019-01-09T06:11:29.127Z,5.11
2019-01-09T06:12:29.187Z,4.93
2019-01-09T06:13:29.241Z,5.01
2019-01-09T06:14:29.289Z,4.94
2019-01-09T06:15:29.343Z,4.93
2019-01-09T06:16:29.397Z,4.86
2019-01-09T06:17:29.448Z,4.91
2019-01-09T06:18:29.497Z,4.80
2019-01-09T06:19:29.556Z,4.71
2019-01-09T06:20:29.640Z,4.56
2019-01-09T06:21:29.727Z,4.43
2019-01-09T06:22:29.726Z,4.36
2019-01-09T06:23:29.773Z,4.31
2019-01-09T06:24:29.799Z,4.29
2019-01-09T06:25:29.847Z,4.24
2019-01-09T06:26:30.050Z,4.21
2019-01-09T06:27:30.558Z,4.29
2019-01-09T06:28:30.937Z,4.24
2019-01-09T06:29:30.080Z,4.17
2019-01-09T06:30:30.131Z,4.18
2019-01-09T06:31:30.235Z,4.21
2019-01-09T06:32:30.204Z,4.13
2019-01-09T06:33:30.243Z,4.13
2019-01-09T06:34:30.314Z,4.16
2019-01-09T06:35:30.705Z,4.16
2019-01-09T06:36:30.487Z,4.10
2019-01-09T06:37:30.458Z,4.00
2019-01-09T06:38:30.865Z,3.98
2019-01-09T06:39:30.562Z,3.95
2019-01-09T06:40:30.595Z,3.92
2019-01-09T06:41:30.681Z,3.78
2019-01-09T06:42:30.782Z,3.81
2019-01-09T06:43:30.750Z,3.90
2019-01-09T06:44:30.797Z,3.90
2019-01-09T06:45:30.847Z,3.93
2019-01-09T06:46:30.901Z,3.88
2019-01-09T06:47:30.958Z,3.90
2019-01-09T06:48:30.999Z,3.99
2019-01-09T06:49:31.401Z,3.95
2019-01-09T06:50:31.448Z,4.00
2019-01-09T06:51:31.150Z,3.90
2019-01-09T06:52:31.218Z,3.93
2019-01-09T06:53:31.276Z,3.93
2019-01-09T06:54:31.342Z,4.04
2019-01-09T06:55:31.439Z,3.99
2019-01-09T06:56:31.418Z,4.04
2019-01-09T06:57:31.459Z,3.95
2019-01-09T06:58:31.507Z,4.00
2019-01-09T06:59:31.608Z,3.98
2019-01-09T07:00:32.595Z,3.93
2019-01-09T07:01:31.685Z,3.92
2019-01-09T07:02:31.708Z,3.88
2019-01-09T07:03:31.758Z,3.92
2019-01-09T07:04:31.809Z,3.99
2019-01-09T07:05:31.859Z,4.02
2019-01-09T07:06:31.918Z,4.06
2019-01-09T07:07:36.109Z,4.11
2019-01-09T07:08:32.011Z,4.08
2019-01-09T07:09:32.062Z,3.96
2019-01-09T07:10:32.113Z,3.96
2019-01-09T07:11:32.195Z,3.98
2019-01-09T07:12:32.215Z,3.95
2019-01-09T07:13:32.264Z,3.92
2019-01-09T07:14:32.315Z,3.90
2019-01-09T07:15:32.365Z,3.89
2019-01-09T07:16:32.513Z,3.89
2019-01-09T07:17:32.468Z,3.92
2019-01-09T07:18:32.519Z,3.88
2019-01-09T07:19:32.598Z,3.90
2019-01-09T07:20:32.660Z,3.92
2019-01-09T07:21:33.058Z,3.89
2019-01-09T07:22:32.755Z,3.93
2019-01-09T07:23:32.810Z,3.99
2019-01-09T07:24:32.821Z,4.13
2019-01-09T07:25:32.876Z,4.10
2019-01-09T07:26:32.961Z,4.02
2019-01-09T07:27:33.005Z,3.89
2019-01-09T07:28:33.024Z,3.88
2019-01-09T07:29:33.075Z,3.88
2019-01-09T07:30:33.125Z,3.89
2019-01-09T07:31:33.176Z,3.89
2019-01-09T07:32:33.226Z,3.68
2019-01-09T07:33:33.279Z,3.71
2019-01-09T07:34:33.328Z,3.70
2019-01-09T07:35:33.377Z,3.68
2019-01-09T07:36:33.430Z,3.67
2019-01-09T07:37:33.481Z,3.63
2019-01-09T07:38:33.529Z,3.59
2019-01-09T07:39:33.579Z,3.63
2019-01-09T07:40:33.654Z,3.52
2019-01-09T07:41:33.711Z,3.44
2019-01-09T07:42:33.733Z,3.46
2019-01-09T07:43:33.781Z,3.42
2019-01-09T07:44:33.847Z,3.22
2019-01-09T07:45:33.929Z,3.13
2019-01-09T07:46:33.949Z,3.20
2019-01-09T07:47:34.384Z,3.19
2019-01-09T07:48:34.033Z,3.16
2019-01-09T07:49:34.119Z,3.04
2019-01-09T07:50:34.145Z,2.89
2019-01-09T07:51:34.196Z,2.84
2019-01-09T07:52:34.340Z,2.71
2019-01-09T07:53:34.319Z,2.69
2019-01-09T07:54:34.342Z,2.74
2019-01-09T07:55:34.392Z,2.73
2019-01-09T07:56:34.437Z,2.71
2019-01-09T07:57:34.485Z,2.69
2019-01-09T07:58:34.535Z,2.68
2019-01-09T07:59:34.586Z,2.69
2019-01-09T08:00:34.636Z,2.66
2019-01-09T08:01:34.723Z,2.77
2019-01-09T08:02:34.753Z,2.80
2019-01-09T08:03:34.788Z,2.79
2019-01-09T08:04:34.838Z,2.89
2019-01-09T08:05:34.887Z,2.77
2019-01-09T08:06:34.936Z,2.77
2019-01-09T08:07:34.985Z,2.84
2019-01-09T08:08:35.035Z,2.81
2019-01-09T08:09:35.085Z,2.80
2019-01-09T08:10:35.135Z,2.83
2019-01-09T08:11:35.186Z,2.81
2019-01-09T08:12:35.238Z,2.73
2019-01-09T08:13:35.287Z,2.69
2019-01-09T08:14:35.377Z,2.71
2019-01-09T08:15:35.398Z,2.71
2019-01-09T08:16:35.450Z,2.74
2019-01-09T08:17:35.519Z,2.79
2019-01-09T08:18:35.538Z,2.81
2019-01-09T08:19:35.623Z,2.79
2019-01-09T08:20:35.668Z,2.79
2019-01-09T08:21:35.697Z,2.81
2019-01-09T08:22:36.111Z,2.83
2019-01-09T08:23:35.813Z,2.81
2019-01-09T08:24:36.398Z,2.84
2019-01-09T08:25:35.886Z,2.86
2019-01-09T08:26:35.936Z,2.89
2019-01-09T08:27:36.525Z,2.90
2019-01-09T08:28:36.080Z,2.87
2019-01-09T08:29:36.086Z,2.79
2019-01-09T08:30:36.136Z,2.77
2019-01-09T08:31:36.186Z,2.76
2019-01-09T08:32:36.234Z,2.73
2019-01-09T08:33:36.286Z,2.80
2019-01-09T08:34:36.336Z,2.79
2019-01-09T08:35:36.388Z,2.86
2019-01-09T08:36:36.436Z,2.87
2019-01-09T08:37:36.489Z,2.81
2019-01-09T08:38:36.537Z,2.83
2019-01-09T08:39:36.586Z,2.79
2019-01-09T08:40:36.643Z,2.92
2019-01-09T08:41:36.687Z,2.73
2019-01-09T08:42:36.738Z,2.73
2019-01-09T08:43:36.787Z,2.86
2019-01-09T08:44:36.839Z,2.80
2019-01-09T08:45:36.888Z,2.97
2019-01-09T08:46:36.940Z,3.07
2019-01-09T08:47:37.110Z,3.08
2019-01-09T08:48:37.038Z,3.16
2019-01-09T08:49:37.098Z,3.30
2019-01-09T08:50:37.138Z,3.28
2019-01-09T08:51:37.186Z,3.33
2019-01-09T08:52:37.244Z,3.39
2019-01-09T08:53:37.289Z,3.44
2019-01-09T08:54:37.338Z,3.23
2019-01-09T08:55:37.389Z,3.19
2019-01-09T08:56:37.441Z,3.25
2019-01-09T08:57:37.567Z,3.23
2019-01-09T08:58:37.540Z,3.30
2019-01-09T08:59:37.592Z,3.44
2019-01-09T09:00:37.639Z,3.37
2019-01-09T09:01:37.691Z,3.49
2019-01-09T09:02:37.739Z,3.42
2019-01-09T09:03:37.789Z,3.57
2019-01-09T09:04:37.869Z,3.53
2019-01-09T09:05:37.893Z,3.44
2019-01-09T09:06:37.944Z,3.53
2019-01-09T09:07:39.479Z,3.46
2019-01-09T09:08:38.040Z,3.45
2019-01-09T09:09:38.095Z,3.46
2019-01-09T09:10:38.143Z,3.33
2019-01-09T09:11:38.192Z,3.39
2019-01-09T09:12:38.241Z,3.45
2019-01-09T09:13:38.297Z,3.74
2019-01-09T09:14:38.344Z,3.57
2019-01-09T09:15:38.392Z,3.64
2019-01-09T09:16:38.444Z,3.67
2019-01-09T09:17:38.494Z,3.71
2019-01-09T09:18:39.604Z,3.64
2019-01-09T09:19:39.392Z,3.63
2019-01-09T09:20:38.645Z,3.59
2019-01-09T09:21:38.720Z,3.62
2019-01-09T09:22:38.745Z,3.72
2019-01-09T09:23:38.797Z,3.75
2019-01-09T09:24:38.846Z,3.70
2019-01-09T09:25:38.897Z,3.70
2019-01-09T09:26:38.957Z,3.68
2019-01-09T09:27:38.996Z,3.71
2019-01-09T09:28:39.049Z,3.71
2019-01-09T09:29:39.106Z,3.81
2019-01-09T09:30:39.149Z,3.72
2019-01-09T09:31:39.202Z,3.74
2019-01-09T09:32:39.254Z,3.81
2019-01-09T09:33:39.303Z,3.86
2019-01-09T09:34:39.351Z,3.86
2019-01-09T09:35:39.404Z,3.84
2019-01-09T09:36:39.451Z,3.82
2019-01-09T09:37:39.503Z,3.86
2019-01-09T09:38:39.553Z,3.88
2019-01-09T09:39:39.604Z,3.75
2019-01-09T09:40:39.655Z,3.80
2019-01-09T09:41:39.705Z,3.74
2019-01-09T09:42:39.757Z,3.82
2019-01-09T09:43:39.806Z,3.88
2019-01-09T09:44:39.857Z,3.93
2019-01-09T09:45:39.908Z,3.89
2019-01-09T09:46:39.959Z,3.92
2019-01-09T09:47:40.008Z,3.92
2019-01-09T09:48:40.062Z,3.90
2019-01-09T09:49:40.133Z,3.96
2019-01-09T09:50:40.174Z,3.88
2019-01-09T09:51:40.214Z,3.88
2019-01-09T09:52:40.271Z,4.04
2019-01-09T09:53:40.318Z,4.11
2019-01-09T09:54:40.365Z,4.17
2019-01-09T09:55:40.426Z,4.25
2019-01-09T09:56:40.465Z,4.25
2019-01-09T09:57:40.516Z,4.26
2019-01-09T09:58:40.566Z,4.36
2019-01-09T09:59:40.616Z,4.44
2019-01-09T10:00:40.670Z,4.56
2019-01-09T10:01:40.719Z,4.71
2019-01-09T10:02:40.822Z,4.80
2019-01-09T10:03:40.819Z,4.94
2019-01-09T10:04:40.870Z,4.94
2019-01-09T10:05:40.921Z,4.91
2019-01-09T10:06:40.976Z,4.93
2019-01-09T10:07:41.023Z,5.12
2019-01-09T10:08:41.074Z,5.20
2019-01-09T10:09:41.125Z,5.15
2019-01-09T10:10:41.543Z,5.12
2019-01-09T10:11:41.229Z,5.24
2019-01-09T10:12:41.281Z,5.20
2019-01-09T10:13:41.333Z,5.14
2019-01-09T10:14:41.408Z,5.26
2019-01-09T10:15:41.436Z,5.33
2019-01-09T10:16:41.488Z,5.45
2019-01-09T10:17:41.539Z,5.69
2019-01-09T10:18:41.590Z,5.78
2019-01-09T10:19:41.641Z,5.78
2019-01-09T10:20:41.693Z,5.87
2019-01-09T10:21:41.827Z,5.75
2019-01-09T10:22:41.799Z,5.73
2019-01-09T10:23:41.848Z,5.74
2019-01-09T10:24:41.925Z,5.78
2019-01-09T10:25:41.953Z,5.75
2019-01-09T10:26:42.005Z,5.74
2019-01-09T10:27:42.057Z,5.66
2019-01-09T10:28:42.108Z,5.69
2019-01-09T10:29:42.164Z,5.69
2019-01-09T10:30:42.213Z,5.45
2019-01-09T10:31:42.265Z,5.44
2019-01-09T10:32:42.318Z,5.44
2019-01-09T10:33:42.371Z,5.37
2019-01-09T10:34:42.424Z,5.38
2019-01-09T10:35:42.474Z,5.38
2019-01-09T10:36:42.526Z,5.37
2019-01-09T10:37:42.580Z,5.35
2019-01-09T10:38:44.548Z,5.49
2019-01-09T10:39:42.684Z,5.38
2019-01-09T10:40:42.750Z,5.42
2019-01-09T10:41:42.787Z,5.49
2019-01-09T10:42:42.841Z,5.59
2019-01-09T10:43:42.893Z,5.62
2019-01-09T10:44:42.943Z,5.63
2019-01-09T10:45:42.994Z,5.74
2019-01-09T10:46:43.049Z,5.98
2019-01-09T10:47:43.099Z,5.83
2019-01-09T10:48:43.152Z,5.98
2019-01-09T10:49:43.203Z,6.11
2019-01-09T10:50:43.255Z,6.13
2019-01-09T10:51:43.307Z,6.08
2019-01-09T10:52:43.361Z,6.13
2019-01-09T10:53:43.411Z,5.98
2019-01-09T10:54:43.463Z,5.98
2019-01-09T10:55:43.515Z,6.02
2019-01-09T10:56:43.570Z,6.17
2019-01-09T10:57:43.822Z,6.01
2019-01-09T10:58:43.672Z,5.96
2019-01-09T10:59:43.724Z,5.92
2019-01-09T11:00:43.775Z,5.88
2019-01-09T11:01:43.829Z,6.01
2019-01-09T11:02:43.880Z,6.03
2019-01-09T11:03:43.932Z,6.05
2019-01-09T11:04:43.985Z,6.19
2019-01-09T11:05:44.035Z,6.16
2019-01-09T11:06:44.089Z,6.16
2019-01-09T11:07:44.140Z,6.19
2019-01-09T11:08:47.040Z,6.16
2019-01-09T11:09:44.246Z,6.13
2019-01-09T11:10:44.298Z,6.03
2019-01-09T11:11:44.348Z,6.08
2019-01-09T11:12:44.401Z,6.19
2019-01-09T11:13:44.453Z,6.17
2019-01-09T11:14:44.506Z,6.16
2019-01-09T11:15:44.562Z,6.25
2019-01-09T11:16:44.611Z,6.27
2019-01-09T11:17:44.759Z,6.36
2019-01-09T11:18:44.714Z,6.50
2019-01-09T11:19:44.766Z,6.38
2019-01-09T11:20:44.819Z,6.40
2019-01-09T11:21:44.921Z,6.30
2019-01-09T11:22:45.705Z,6.20
2019-01-09T11:23:45.722Z,6.17
2019-01-09T11:24:45.669Z,6.16
2019-01-09T11:25:45.081Z,6.30
2019-01-09T11:26:45.134Z,6.36
2019-01-09T11:27:45.187Z,6.40
2019-01-09T11:28:45.239Z,6.28
2019-01-09T11:29:45.290Z,6.32
2019-01-09T11:30:45.344Z,6.24
2019-01-09T11:31:45.406Z,6.28
2019-01-09T11:32:45.448Z,6.19
2019-01-09T11:33:45.500Z,6.06
2019-01-09T11:34:45.559Z,6.16
2019-01-09T11:35:45.606Z,6.17
2019-01-09T11:36:45.659Z,6.38
2019-01-09T11:37:45.717Z,6.39
2019-01-09T11:38:45.764Z,6.28
2019-01-09T11:39:45.815Z,6.24
2019-01-09T11:40:45.870Z,6.40
2019-01-09T11:41:45.924Z,6.39
2019-01-09T11:42:45.974Z,6.25
2019-01-09T11:43:46.025Z,6.43
2019-01-09T11:44:46.080Z,6.30
2019-01-09T11:45:46.132Z,6.35
2019-01-09T11:46:46.184Z,6.48
2019-01-09T11:47:46.236Z,6.61
2019-01-09T11:48:46.290Z,6.72
2019-01-09T11:49:46.343Z,6.78
2019-01-09T11:50:46.396Z,6.93
2019-01-09T11:51:46.449Z,6.91
2019-01-09T11:52:46.501Z,6.89
2019-01-09T11:53:46.556Z,6.86
2019-01-09T11:54:46.607Z,6.90
2019-01-09T11:55:46.660Z,6.91
2019-01-09T11:56:46.714Z,6.81
2019-01-09T11:57:46.767Z,6.82
2019-01-09T11:58:46.821Z,6.65
2019-01-09T11:59:46.872Z,6.65
2019-01-09T12:00:46.927Z,6.73
2019-01-09T12:01:46.979Z,6.65
2019-01-09T12:02:47.033Z,6.58
2019-01-09T12:03:47.089Z,6.53
2019-01-09T12:04:47.139Z,6.51
2019-01-09T12:05:47.192Z,6.50
2019-01-09T12:06:47.246Z,6.50
2019-01-09T12:07:47.299Z,6.46
2019-01-09T12:08:49.332Z,6.50
2019-01-09T12:09:47.406Z,6.32
2019-01-09T12:10:47.521Z,6.43
2019-01-09T12:11:47.512Z,6.38
2019-01-09T12:12:47.597Z,6.36
2019-01-09T12:13:47.619Z,6.33
2019-01-09T12:14:47.673Z,6.32
2019-01-09T12:15:47.724Z,6.14
2019-01-09T12:16:47.776Z,6.24
2019-01-09T12:17:47.831Z,6.21
2019-01-09T12:18:47.884Z,6.28
2019-01-09T12:19:47.936Z,6.42
2019-01-09T12:20:47.987Z,6.35
2019-01-09T12:21:48.044Z,6.27
2019-01-09T12:22:48.095Z,6.36
2019-01-09T12:23:48.148Z,6.38
2019-01-09T12:24:48.201Z,6.38
2019-01-09T12:25:48.254Z,6.27
2019-01-09T12:26:49.985Z,6.32
2019-01-09T12:27:48.362Z,6.30
2019-01-09T12:28:53.431Z,6.36
2019-01-09T12:29:48.467Z,6.28
2019-01-09T12:30:48.518Z,6.36
2019-01-09T12:31:48.570Z,6.33
2019-01-09T12:32:48.624Z,6.35
2019-01-09T12:33:48.679Z,6.35
2019-01-09T12:34:48.730Z,6.42
2019-01-09T12:35:48.785Z,6.55
2019-01-09T12:36:48.841Z,6.45
2019-01-09T12:37:48.891Z,6.46
2019-01-09T12:38:48.946Z,6.32
2019-01-09T12:39:48.995Z,6.40
2019-01-09T12:40:49.049Z,6.33
2019-01-09T12:41:49.102Z,6.32
2019-01-09T12:42:49.156Z,6.32
2019-01-09T12:43:49.207Z,6.36
2019-01-09T12:44:49.261Z,6.33
2019-01-09T12:45:49.315Z,6.32
2019-01-09T12:46:49.368Z,6.24
2019-01-09T12:47:49.419Z,6.28
2019-01-09T12:48:49.472Z,6.25
2019-01-09T12:49:49.526Z,6.39
2019-01-09T12:50:49.579Z,6.36
2019-01-09T12:51:49.630Z,6.24
2019-01-09T12:52:49.684Z,6.25
2019-01-09T12:53:49.737Z,6.55
2019-01-09T12:54:49.791Z,6.64
2019-01-09T12:55:49.839Z,6.55
2019-01-09T12:56:49.896Z,7.37
2019-01-09T12:57:49.947Z,8.34
2019-01-09T12:58:49.998Z,8.10
2019-01-09T12:59:50.052Z,8.61
2019-01-09T13:00:50.105Z,8.91
2019-01-09T13:01:50.159Z,9.20
2019-01-09T13:02:50.212Z,9.73
2019-01-09T13:03:50.263Z,10.10
2019-01-09T13:04:50.318Z,10.94
2019-01-09T13:05:50.373Z,11.12
2019-01-09T13:06:50.426Z,10.55
2019-01-09T13:07:50.479Z,10.07
2019-01-09T13:08:50.534Z,8.83
2019-01-09T13:09:50.587Z,9.30
2019-01-09T13:10:50.643Z,9.48
2019-01-09T13:11:50.696Z,9.49
2019-01-09T13:12:52.790Z,10.13
2019-01-09T13:13:50.808Z,10.62
2019-01-09T13:14:50.862Z,10.84
2019-01-09T13:15:50.913Z,10.98
2019-01-09T13:16:50.971Z,11.72
2019-01-09T13:17:51.026Z,11.30
2019-01-09T13:18:51.081Z,11.26